createdAt,value
2023-01-15T13:10:17.389Z,1.20
2023-01-15T13:13:24.733Z,1.50
2023-01-15T13:16:47.406Z,1.75
2023-01-15T13:20:07.678Z,1.88
2023-01-15T13:23:23.091Z,1.88
2023-01-15T13:27:02.295Z,1.23
2023-01-15T13:30:18.915Z,1.25
2023-01-15T13:33:41.338Z,1.30
2023-01-15T13:36:46.017Z,1.50
2023-01-15T13:39:49.221Z,1.20
2023-01-15T13:42:52.221Z,1.27
2023-01-15T13:45:54.170Z,1.30
2023-01-15T13:48:55.938Z,1.23
2023-01-15T13:52:03.979Z,0.90
2023-01-15T13:55:20.498Z,1.17
2023-01-15T13:58:29.211Z,1.10
2023-01-15T14:01:30.740Z,1.02
2023-01-15T14:04:37.547Z,0.95
2023-01-15T14:07:39.069Z,1.00
2023-01-15T14:10:40.893Z,0.90
2023-01-15T14:14:11.433Z,1.10
2023-01-15T14:17:40.528Z,1.17
2023-01-15T14:21:17.594Z,1.00
2023-01-15T14:24:45.002Z,0.80
2023-01-15T14:28:22.347Z,1.10
2023-01-15T14:31:50.573Z,1.10
2023-01-15T14:34:57.914Z,0.90
2023-01-15T14:38:05.578Z,0.98
2023-01-15T14:41:07.614Z,0.80
2023-01-15T14:44:09.174Z,0.82
2023-01-15T14:47:25.764Z,0.82
2023-01-15T14:50:38.997Z,0.85
2023-01-15T14:53:52.830Z,0.80
2023-01-15T14:56:57.642Z,0.90
2023-01-15T15:00:04.055Z,0.90
2023-01-15T15:03:20.742Z,0.95
2023-01-15T15:06:22.843Z,0.65
2023-01-15T15:09:32.725Z,0.60
2023-01-15T15:13:05.284Z,0.63
2023-01-15T15:16:22.326Z,0.70
2023-01-15T15:19:33.365Z,0.90
2023-01-15T15:22:38.568Z,0.80
2023-01-15T15:25:41.592Z,0.80
2023-01-15T15:28:43.076Z,0.70
2023-01-15T15:31:53.509Z,0.50
2023-01-15T15:34:55.930Z,0.65
2023-01-15T15:38:02.624Z,0.70
2023-01-15T15:41:12.326Z,0.75
2023-01-15T15:44:41.155Z,0.77
2023-01-15T15:48:01.501Z,0.60
2023-01-15T15:51:05.019Z,0.80
2023-01-15T15:54:15.834Z,0.70
2023-01-15T16:00:32.474Z,0.45
2023-01-15T16:03:34.550Z,0.70
2023-01-15T16:06:36.963Z,0.50
2023-01-15T16:09:39.922Z,0.82
2023-01-15T16:12:48.286Z,0.68
2023-01-15T16:15:50.855Z,0.60
2023-01-15T16:18:54.614Z,0.82
2023-01-15T16:21:56.382Z,0.70
2023-01-15T16:24:58.550Z,0.68
2023-01-15T16:28:00.928Z,0.82
2023-01-15T16:31:03.044Z,0.70
2023-01-15T16:34:05.289Z,0.75
2023-01-15T16:37:24.475Z,1.42
2023-01-15T16:40:29.994Z,1.70
2023-01-15T16:43:31.988Z,1.80
2023-01-15T16:46:53.023Z,1.30
2023-01-15T16:50:23.311Z,1.00
2023-01-15T16:53:36.849Z,0.80
2023-01-15T16:56:38.303Z,0.90
2023-01-15T16:59:55.746Z,1.02
2023-01-15T17:02:57.262Z,1.10
2023-01-15T17:06:11.574Z,0.82
2023-01-15T17:09:15.889Z,0.70
2023-01-15T17:12:25.497Z,0.55
2023-01-15T17:15:26.897Z,0.60
2023-01-15T17:18:29.641Z,0.68
2023-01-15T17:21:31.461Z,0.47
2023-01-15T17:24:32.943Z,0.70
2023-01-15T17:27:34.441Z,0.38
2023-01-15T17:30:35.923Z,0.73
2023-01-15T17:33:37.369Z,0.75
2023-01-15T17:36:38.987Z,0.43
2023-01-15T17:39:40.611Z,0.60
2023-01-15T17:42:42.108Z,0.80
2023-01-15T17:45:43.857Z,0.80
2023-01-15T17:48:45.428Z,0.60
2023-01-15T17:51:47.028Z,0.60
2023-01-15T17:55:07.144Z,0.70
2023-01-15T17:58:31.441Z,0.50
2023-01-15T18:02:00.691Z,0.80
2023-01-15T18:05:20.900Z,0.70
2023-01-15T18:08:22.406Z,0.60
2023-01-15T18:11:24.199Z,0.57
2023-01-15T18:14:26.569Z,0.60
2023-01-15T18:17:29.084Z,0.60
2023-01-15T18:20:31.651Z,1.02
2023-01-15T18:23:35.064Z,0.65
2023-01-15T18:26:38.350Z,0.60
2023-01-15T18:29:40.345Z,0.93
2023-01-15T18:32:42.841Z,0.50
2023-01-15T18:35:44.288Z,0.80
2023-01-15T18:38:47.294Z,0.57
2023-01-15T18:41:48.770Z,0.60
2023-01-15T18:45:08.772Z,0.50
2023-01-15T18:48:10.723Z,0.90
2023-01-15T18:51:12.184Z,0.70
2023-01-15T18:54:13.694Z,0.60
2023-01-15T18:57:16.514Z,0.52
2023-01-15T19:00:19.958Z,0.70
2023-01-15T19:03:21.403Z,0.70
2023-01-15T19:06:22.862Z,0.50
2023-01-15T19:09:24.528Z,0.52
2023-01-15T19:12:26.029Z,0.70
2023-01-15T19:15:46.250Z,0.60
2023-01-15T19:18:53.394Z,0.45
